Bladensburg, Iowa
Current Conditions -  °F | °C
As of 11:27 PM on Wednesday 26 Nov 2014 (Local Time) from KOTM Reporting Station
Light Snow Light Snow  
Wind Chill: 17°   Ceiling: 1200
Heat Index: 28°   Visibility: 4mi
Dew Point: 25°   Wind: 13mph
Humidity: 88%   Direction: 330°NNW
Pressure: 30.31"   Gusts: NA
Location:  41.0803°N, 92.3054°W
Report Text: KOTM 270527Z AUTO 33011KT 4SM -SN BR SCT008 OVC012 M02/M04 A3031 RMK AO2 SNB19 P0000 T10221039
Loading
Personal Weather Stations






























Interactive Weather Map New forecast layout! Learn more

10-Day Weather Forecast

Advertisements
Track Severe Weather on mobile